createdAt,value
2018-03-15T00:00:56.548Z,7.87
2018-03-15T00:03:29.708Z,8.37
2018-03-15T00:05:57.323Z,9.53
2018-03-15T00:08:25.143Z,12.63
2018-03-15T00:10:52.960Z,7.43
2018-03-15T00:13:20.752Z,6.43
2018-03-15T00:15:49.261Z,10.10
2018-03-15T00:18:17.883Z,11.53
2018-03-15T00:20:46.052Z,7.47
2018-03-15T00:23:15.228Z,8.13
2018-03-15T00:25:44.250Z,12.37
2018-03-15T00:28:11.979Z,7.17
2018-03-15T00:30:40.289Z,12.00
2018-03-15T00:33:08.286Z,9.20
2018-03-15T00:35:35.986Z,6.67
2018-03-15T00:38:05.660Z,7.17
2018-03-15T00:40:33.347Z,6.77
2018-03-15T00:43:00.996Z,9.53
2018-03-15T00:45:28.594Z,8.43
2018-03-15T00:47:57.612Z,5.53
2018-03-15T00:50:26.626Z,7.10
2018-03-15T00:52:54.306Z,8.23
2018-03-15T00:55:22.172Z,8.03
2018-03-15T00:57:50.727Z,8.90
2018-03-15T01:00:18.374Z,8.10
2018-03-15T01:02:47.227Z,6.73
2018-03-15T01:05:14.818Z,7.70
2018-03-15T01:07:43.560Z,8.20
2018-03-15T01:10:11.263Z,6.37
2018-03-15T01:12:39.626Z,6.97
2018-03-15T01:15:07.222Z,6.47
2018-03-15T01:17:35.386Z,5.87
2018-03-15T01:20:03.767Z,6.43
2018-03-15T01:22:32.423Z,8.17
2018-03-15T01:25:00.000Z,6.87
2018-03-15T01:27:27.621Z,7.13
2018-03-15T01:29:55.957Z,6.63
2018-03-15T01:32:24.110Z,8.00
2018-03-15T01:34:51.818Z,4.77
2018-03-15T01:37:20.211Z,6.10
2018-03-15T01:39:47.907Z,8.77
2018-03-15T01:42:15.634Z,6.33
2018-03-15T01:44:43.290Z,6.50
2018-03-15T01:47:10.991Z,4.03
2018-03-15T01:49:38.618Z,6.20
2018-03-15T01:52:06.246Z,6.60
2018-03-15T01:54:34.771Z,3.73
2018-03-15T01:57:02.411Z,4.87
2018-03-15T01:59:30.014Z,4.73
2018-03-15T02:01:57.608Z,4.53
2018-03-15T02:04:25.724Z,5.27
2018-03-15T02:06:53.311Z,4.97
2018-03-15T02:09:20.875Z,5.37
2018-03-15T02:11:48.482Z,6.77
2018-03-15T02:14:16.452Z,4.43
2018-03-15T02:16:44.036Z,4.87
2018-03-15T02:19:11.720Z,5.07
2018-03-15T02:21:40.361Z,4.07
2018-03-15T02:24:08.895Z,5.53
2018-03-15T02:26:36.475Z,5.83
2018-03-15T02:29:04.039Z,3.33
2018-03-15T02:31:31.632Z,3.60
2018-03-15T02:33:59.208Z,3.87
2018-03-15T02:36:27.154Z,5.03
2018-03-15T02:38:54.782Z,4.93
2018-03-15T02:41:23.350Z,3.03
2018-03-15T02:43:50.942Z,3.23
2018-03-15T02:46:19.310Z,3.20
2018-03-15T02:48:46.884Z,2.90
2018-03-15T02:51:15.235Z,3.37
2018-03-15T02:53:43.644Z,2.80
2018-03-15T02:56:12.028Z,4.67
2018-03-15T02:58:39.648Z,2.67
2018-03-15T03:01:07.229Z,5.97
2018-03-15T03:03:34.823Z,5.57
2018-03-15T03:06:03.176Z,2.40
2018-03-15T03:08:30.838Z,1.90
2018-03-15T03:10:58.579Z,1.87
2018-03-15T03:13:27.066Z,1.77
2018-03-15T03:15:54.809Z,2.80
2018-03-15T03:18:22.474Z,1.53
2018-03-15T03:20:50.128Z,2.30
2018-03-15T03:23:17.695Z,2.50
2018-03-15T03:25:45.264Z,1.83
2018-03-15T03:28:12.978Z,1.50
2018-03-15T03:30:41.509Z,1.87
2018-03-15T03:33:09.123Z,1.57
2018-03-15T03:35:36.703Z,2.30
2018-03-15T03:38:04.878Z,2.03
2018-03-15T03:40:33.248Z,1.70
2018-03-15T03:43:00.899Z,1.37
2018-03-15T03:45:28.559Z,2.33
2018-03-15T03:47:56.155Z,2.33
2018-03-15T03:50:23.712Z,1.53
2018-03-15T03:52:52.046Z,1.80
2018-03-15T03:55:19.669Z,1.73
2018-03-15T03:57:47.999Z,1.40
2018-03-15T04:00:15.631Z,2.53
2018-03-15T04:02:43.220Z,1.37
2018-03-15T04:05:11.382Z,1.50
2018-03-15T04:07:38.944Z,1.50
2018-03-15T04:10:06.531Z,1.37
2018-03-15T04:12:34.191Z,1.50
2018-03-15T04:15:01.827Z,1.40
2018-03-15T04:17:29.614Z,2.07
2018-03-15T04:19:57.702Z,2.60
2018-03-15T04:22:25.294Z,1.37
2018-03-15T04:24:52.871Z,0.90
2018-03-15T04:27:21.858Z,1.53
2018-03-15T04:29:49.455Z,0.90
2018-03-15T04:32:17.064Z,1.03
2018-03-15T04:34:45.585Z,1.00
2018-03-15T04:37:14.734Z,1.73
2018-03-15T04:39:43.355Z,1.40
2018-03-15T04:42:11.714Z,1.43
2018-03-15T04:44:39.291Z,1.77
2018-03-15T04:47:06.847Z,1.17
2018-03-15T04:49:35.011Z,1.97
2018-03-15T04:52:02.574Z,2.07
2018-03-15T04:54:30.128Z,1.97
2018-03-15T04:56:58.050Z,2.83
2018-03-15T04:59:25.754Z,2.97
2018-03-15T05:01:53.320Z,4.10
2018-03-15T05:04:20.906Z,2.53
2018-03-15T05:06:48.466Z,1.10
2018-03-15T05:09:16.830Z,2.27
2018-03-15T05:11:44.407Z,2.53
2018-03-15T05:14:12.008Z,2.93
2018-03-15T05:16:40.339Z,5.40
2018-03-15T05:19:07.978Z,1.80
2018-03-15T05:21:35.623Z,2.83
2018-03-15T05:24:03.231Z,3.17
2018-03-15T05:26:30.794Z,4.50
2018-03-15T05:28:58.417Z,2.57
2018-03-15T05:31:26.339Z,2.53
2018-03-15T05:33:53.979Z,3.13
2018-03-15T05:36:21.567Z,3.03
2018-03-15T05:38:49.635Z,2.70
2018-03-15T05:41:17.220Z,2.50
2018-03-15T05:43:45.559Z,2.87
2018-03-15T05:46:13.138Z,1.60
2018-03-15T05:48:40.698Z,2.27
2018-03-15T05:51:08.251Z,2.07
2018-03-15T05:53:36.342Z,3.77
2018-03-15T05:56:03.934Z,5.83
2018-03-15T05:58:32.391Z,3.93
2018-03-15T06:01:00.295Z,4.07
2018-03-15T06:03:28.742Z,3.20
2018-03-15T06:05:57.757Z,4.73
2018-03-15T06:08:26.096Z,5.13
2018-03-15T06:10:53.740Z,5.27
2018-03-15T06:13:21.319Z,3.73
2018-03-15T06:15:49.702Z,2.47
2018-03-15T06:18:17.270Z,3.97
2018-03-15T06:20:44.832Z,4.13
2018-03-15T06:23:12.406Z,6.70
2018-03-15T06:25:40.258Z,7.80
2018-03-15T06:28:08.700Z,5.93
2018-03-15T06:30:37.046Z,5.30
2018-03-15T06:33:05.421Z,3.30
2018-03-15T06:35:33.514Z,6.60
2018-03-15T06:38:01.102Z,2.70
2018-03-15T06:40:28.714Z,5.80
2018-03-15T06:42:56.309Z,4.67
2018-03-15T06:45:24.406Z,4.80
2018-03-15T06:47:53.146Z,2.83
2018-03-15T06:50:20.986Z,5.17
2018-03-15T06:52:48.591Z,4.93
2018-03-15T06:55:17.334Z,3.83
2018-03-15T06:57:44.918Z,4.60
2018-03-15T07:00:12.519Z,4.70
2018-03-15T07:02:40.107Z,2.87
2018-03-15T07:05:07.927Z,3.63
2018-03-15T07:07:36.747Z,3.33
2018-03-15T07:10:04.566Z,2.47
2018-03-15T07:12:32.377Z,3.23
2018-03-15T07:15:00.583Z,1.93
2018-03-15T07:17:28.923Z,2.97
2018-03-15T07:19:57.232Z,4.23
2018-03-15T07:22:24.815Z,5.47
2018-03-15T07:24:52.904Z,5.83
2018-03-15T07:27:20.482Z,4.93
2018-03-15T07:29:48.591Z,5.73
2018-03-15T07:32:16.945Z,5.67
2018-03-15T07:34:44.525Z,5.70
2018-03-15T07:37:12.275Z,6.70
2018-03-15T07:39:39.872Z,9.33
2018-03-15T07:42:08.227Z,9.37
2018-03-15T07:44:35.814Z,9.53
2018-03-15T07:47:04.235Z,11.03
2018-03-15T07:49:31.791Z,5.57
2018-03-15T07:51:59.374Z,5.20
2018-03-15T07:54:29.310Z,8.80
2018-03-15T07:56:57.475Z,4.80
2018-03-15T07:59:25.039Z,5.03
2018-03-15T08:01:52.641Z,5.97
2018-03-15T08:04:21.003Z,7.77
2018-03-15T08:06:48.579Z,5.83
2018-03-15T08:09:16.243Z,9.83
2018-03-15T08:11:43.819Z,4.30
2018-03-15T08:14:11.383Z,5.17
2018-03-15T08:16:40.051Z,5.47
2018-03-15T08:19:07.780Z,6.20
2018-03-15T08:21:35.339Z,9.23
2018-03-15T08:24:02.938Z,12.53
2018-03-15T08:26:30.527Z,6.97
2018-03-15T08:28:58.098Z,7.37
2018-03-15T08:31:25.671Z,11.53
2018-03-15T08:33:53.884Z,7.67
2018-03-15T08:36:21.451Z,9.47
2018-03-15T08:38:49.432Z,6.63
2018-03-15T08:41:17.025Z,11.70
2018-03-15T08:43:44.618Z,12.33
2018-03-15T08:46:12.272Z,10.40
2018-03-15T08:48:40.324Z,9.90
2018-03-15T08:51:07.936Z,13.57
2018-03-15T08:53:36.459Z,16.17
2018-03-15T08:56:04.665Z,5.73
2018-03-15T08:58:32.999Z,13.33
2018-03-15T09:01:00.559Z,8.47
2018-03-15T09:03:28.166Z,9.40
2018-03-15T09:05:55.801Z,14.57
2018-03-15T09:08:30.844Z,9.37
2018-03-15T09:10:58.506Z,14.70
2018-03-15T09:13:26.069Z,12.80
2018-03-15T09:15:55.175Z,10.47
2018-03-15T09:18:22.838Z,8.30
2018-03-15T09:20:50.426Z,12.77
2018-03-15T09:23:18.765Z,11.60
2018-03-15T09:25:46.382Z,8.03
2018-03-15T09:28:13.950Z,14.37
2018-03-15T09:30:41.535Z,7.77
2018-03-15T09:33:10.070Z,12.13
2018-03-15T09:35:37.660Z,11.33
2018-03-15T09:38:05.327Z,8.57
2018-03-15T09:40:33.004Z,11.17
2018-03-15T09:43:01.383Z,9.53
2018-03-15T09:45:28.982Z,9.73
2018-03-15T09:47:56.560Z,9.60
2018-03-15T09:50:24.184Z,8.73
2018-03-15T09:52:52.317Z,15.50
2018-03-15T09:55:19.928Z,7.20
2018-03-15T09:57:47.664Z,10.37
2018-03-15T10:00:15.261Z,13.70
2018-03-15T10:02:43.662Z,8.27
2018-03-15T10:05:12.027Z,22.27
2018-03-15T10:07:39.889Z,13.50
2018-03-15T10:10:07.501Z,7.87
2018-03-15T10:12:35.101Z,10.40
2018-03-15T10:15:02.742Z,9.53
2018-03-15T10:17:30.334Z,10.23
2018-03-15T10:19:58.904Z,6.80
2018-03-15T10:22:26.530Z,12.67
2018-03-15T10:24:54.715Z,9.00
2018-03-15T10:27:23.792Z,13.57
2018-03-15T10:29:52.166Z,10.73
2018-03-15T10:32:19.763Z,12.40
2018-03-15T10:34:47.498Z,13.20
2018-03-15T10:37:15.390Z,11.37
2018-03-15T10:39:42.971Z,6.57
2018-03-15T10:42:10.562Z,6.57
2018-03-15T10:44:38.207Z,10.73
2018-03-15T10:47:06.642Z,8.23
2018-03-15T10:49:34.239Z,7.77
2018-03-15T10:52:01.867Z,8.67
2018-03-15T10:54:29.483Z,13.67
2018-03-15T10:56:57.684Z,9.17
2018-03-15T10:59:25.899Z,8.63
2018-03-15T11:01:59.944Z,7.10
2018-03-15T11:04:33.335Z,9.70
2018-03-15T11:07:04.943Z,9.83
2018-03-15T11:09:33.179Z,8.90
2018-03-15T11:12:00.966Z,11.17
2018-03-15T11:14:28.571Z,9.37
2018-03-15T11:16:56.757Z,10.13
2018-03-15T11:19:24.359Z,13.23
2018-03-15T11:21:51.952Z,9.53
2018-03-15T11:24:19.574Z,14.17
2018-03-15T11:26:47.226Z,6.80
2018-03-15T11:29:15.063Z,12.00
2018-03-15T11:31:44.599Z,12.37
2018-03-15T11:34:12.211Z,13.03
2018-03-15T11:36:39.811Z,11.67
2018-03-15T11:39:08.562Z,12.57
2018-03-15T11:41:36.199Z,6.87
2018-03-15T11:44:04.004Z,4.10
2018-03-15T11:46:31.611Z,8.10
2018-03-15T11:48:59.275Z,6.50
2018-03-15T11:51:26.920Z,9.10
2018-03-15T11:53:55.314Z,13.63
2018-03-15T11:56:22.909Z,13.97
2018-03-15T11:58:51.396Z,11.50
2018-03-15T12:01:19.063Z,9.10
2018-03-15T12:03:46.674Z,10.97
2018-03-15T12:06:14.767Z,13.40
2018-03-15T12:08:42.379Z,7.47
2018-03-15T12:11:09.993Z,5.43
2018-03-15T12:13:37.611Z,7.60
2018-03-15T12:16:05.623Z,6.77
2018-03-15T12:18:33.977Z,12.53
2018-03-15T12:21:01.578Z,9.60
2018-03-15T12:23:30.309Z,13.57
2018-03-15T12:25:57.912Z,13.87
2018-03-15T12:28:26.263Z,8.30
2018-03-15T12:30:54.600Z,10.00
2018-03-15T12:33:23.608Z,10.30
2018-03-15T12:35:51.194Z,11.77
2018-03-15T12:38:18.796Z,11.10
2018-03-15T12:40:47.466Z,16.13
2018-03-15T12:43:15.047Z,10.40
2018-03-15T12:45:42.630Z,7.87
2018-03-15T12:48:10.238Z,5.50
2018-03-15T12:50:37.836Z,6.77
2018-03-15T12:53:06.123Z,8.13
2018-03-15T12:55:34.504Z,8.57
2018-03-15T12:58:02.103Z,6.23
2018-03-15T13:00:29.723Z,10.00
2018-03-15T13:02:58.095Z,8.07
2018-03-15T13:05:26.087Z,5.20
2018-03-15T13:07:54.463Z,14.07
2018-03-15T13:10:22.462Z,9.20
2018-03-15T13:12:50.425Z,12.00
2018-03-15T13:15:18.788Z,9.70
2018-03-15T13:17:47.180Z,10.33
2018-03-15T13:20:15.534Z,7.30
2018-03-15T13:22:43.238Z,15.03
2018-03-15T13:25:11.619Z,12.30
2018-03-15T13:27:39.195Z,7.03
2018-03-15T13:30:06.807Z,9.13
2018-03-15T13:32:34.394Z,14.70
2018-03-15T13:35:01.996Z,14.37
2018-03-15T13:37:29.572Z,11.53
2018-03-15T13:39:57.177Z,12.60
2018-03-15T13:42:25.188Z,15.87
2018-03-15T13:44:52.761Z,11.27
2018-03-15T13:47:20.335Z,8.53
2018-03-15T13:49:47.941Z,9.63
2018-03-15T13:52:16.326Z,11.60
2018-03-15T13:54:45.605Z,8.80
2018-03-15T13:57:13.657Z,6.10
2018-03-15T13:59:41.243Z,8.33
2018-03-15T14:02:08.842Z,6.97
2018-03-15T14:04:36.475Z,10.00
2018-03-15T14:07:04.105Z,12.93
2018-03-15T14:09:31.683Z,7.73
2018-03-15T14:11:59.255Z,5.20
2018-03-15T14:14:27.070Z,10.17
2018-03-15T14:16:54.638Z,11.73
2018-03-15T14:19:22.203Z,10.03
2018-03-15T14:21:49.813Z,10.17
2018-03-15T14:24:17.380Z,10.93
2018-03-15T14:26:44.987Z,11.33
2018-03-15T14:29:12.600Z,7.60
2018-03-15T14:31:40.183Z,5.43
2018-03-15T14:34:08.161Z,6.43
2018-03-15T14:36:36.506Z,9.67
2018-03-15T14:39:04.145Z,11.47
2018-03-15T14:41:32.285Z,6.73
2018-03-15T14:44:00.627Z,7.77
2018-03-15T14:46:28.201Z,8.67
2018-03-15T14:48:56.127Z,8.80
2018-03-15T14:51:23.703Z,11.67
2018-03-15T14:53:51.268Z,13.67
2018-03-15T14:56:18.881Z,16.67
2018-03-15T14:58:46.464Z,9.57
2018-03-15T15:01:14.804Z,12.10
2018-03-15T15:03:42.463Z,8.63
2018-03-15T15:06:10.103Z,9.43
2018-03-15T15:08:37.720Z,7.57
2018-03-15T15:11:06.390Z,9.73
2018-03-15T15:13:34.680Z,13.33
2018-03-15T15:16:02.260Z,9.80
2018-03-15T15:18:31.388Z,11.40
2018-03-15T15:20:58.993Z,11.83
2018-03-15T15:23:26.577Z,9.57
2018-03-15T15:25:54.935Z,7.57
2018-03-15T15:28:22.571Z,6.97
2018-03-15T15:30:50.170Z,8.50
2018-03-15T15:33:19.359Z,11.03
2018-03-15T15:35:46.967Z,8.70
2018-03-15T15:38:14.553Z,7.03
2018-03-15T15:40:42.168Z,8.67
2018-03-15T15:43:10.568Z,10.37
2018-03-15T15:45:38.186Z,10.43
2018-03-15T15:48:05.800Z,7.80
2018-03-15T15:50:33.397Z,5.70
2018-03-15T15:53:01.047Z,10.77
2018-03-15T15:55:29.161Z,10.10
2018-03-15T15:57:56.753Z,7.27
2018-03-15T16:00:24.376Z,9.37
2018-03-15T16:02:52.012Z,12.37
2018-03-15T16:05:20.418Z,8.77
2018-03-15T16:07:48.173Z,8.83
2018-03-15T16:10:15.818Z,8.73
2018-03-15T16:12:44.343Z,7.37
2018-03-15T16:15:11.971Z,11.33
2018-03-15T16:17:39.578Z,8.17
2018-03-15T16:20:07.342Z,8.73
2018-03-15T16:22:35.155Z,6.60
2018-03-15T16:25:02.756Z,6.37
2018-03-15T16:27:30.337Z,10.33
2018-03-15T16:29:58.440Z,7.43
2018-03-15T16:32:26.921Z,5.13
2018-03-15T16:34:54.737Z,8.37
2018-03-15T16:37:22.767Z,7.10
2018-03-15T16:39:51.095Z,8.10
2018-03-15T16:42:18.691Z,3.80
2018-03-15T16:44:46.268Z,4.70
2018-03-15T16:47:14.543Z,8.23
2018-03-15T16:49:42.107Z,4.10
2018-03-15T16:52:09.684Z,9.73
2018-03-15T16:54:38.998Z,7.27
2018-03-15T16:57:06.900Z,7.07
2018-03-15T16:59:34.915Z,5.67
2018-03-15T17:02:02.527Z,4.73
2018-03-15T17:04:30.112Z,7.80
2018-03-15T17:06:58.245Z,6.53
2018-03-15T17:09:25.848Z,6.50
2018-03-15T17:11:53.988Z,5.90
2018-03-15T17:14:21.614Z,4.90
2018-03-15T17:16:49.248Z,5.27
2018-03-15T17:19:17.571Z,7.00
2018-03-15T17:21:45.926Z,7.30
2018-03-15T17:24:13.529Z,6.27
2018-03-15T17:26:42.396Z,5.60
2018-03-15T17:29:10.308Z,6.77
2018-03-15T17:31:38.136Z,7.90
2018-03-15T17:34:06.883Z,6.93
2018-03-15T17:36:35.984Z,5.33
2018-03-15T17:39:04.226Z,4.50
2018-03-15T17:41:31.830Z,9.30
2018-03-15T17:43:59.474Z,6.10
2018-03-15T17:46:27.331Z,6.60
2018-03-15T17:48:54.932Z,6.30
2018-03-15T17:51:22.696Z,5.60
2018-03-15T17:53:50.341Z,5.43
2018-03-15T17:56:17.984Z,7.40
2018-03-15T17:58:45.603Z,4.30
2018-03-15T18:01:13.310Z,5.93
2018-03-15T18:03:41.603Z,7.90
2018-03-15T18:06:09.168Z,10.77
2018-03-15T18:08:36.785Z,8.87
2018-03-15T18:11:05.871Z,5.27
2018-03-15T18:13:33.487Z,7.83
2018-03-15T18:16:01.103Z,5.73
2018-03-15T18:18:28.692Z,9.43
2018-03-15T18:20:56.647Z,10.70
2018-03-15T18:23:24.831Z,5.23
2018-03-15T18:25:52.719Z,8.23
2018-03-15T18:28:21.150Z,14.03
2018-03-15T18:30:49.390Z,6.17
2018-03-15T18:33:18.539Z,7.33
2018-03-15T18:35:46.534Z,10.13
2018-03-15T18:38:15.675Z,11.37
2018-03-15T18:40:43.886Z,9.53
2018-03-15T18:43:11.512Z,9.27
2018-03-15T18:45:39.208Z,7.77
2018-03-15T18:48:07.235Z,10.33
2018-03-15T18:50:34.935Z,6.40
2018-03-15T18:53:03.790Z,9.73
2018-03-15T18:55:31.433Z,7.77
2018-03-15T18:57:59.136Z,9.63
2018-03-15T19:00:27.528Z,8.87
2018-03-15T19:03:08.763Z,11.53
2018-03-15T19:05:36.395Z,11.80
2018-03-15T19:08:03.983Z,10.83
2018-03-15T19:10:33.125Z,9.60
2018-03-15T19:13:00.802Z,7.87
2018-03-15T19:15:28.433Z,11.23
2018-03-15T19:17:56.034Z,13.40
2018-03-15T19:20:24.111Z,7.83
2018-03-15T19:22:52.161Z,11.10
2018-03-15T19:25:19.786Z,9.60
2018-03-15T19:27:47.396Z,9.40
2018-03-15T19:30:15.844Z,7.03
2018-03-15T19:32:44.440Z,9.60
2018-03-15T19:35:12.858Z,13.03
2018-03-15T19:37:41.169Z,7.53
2018-03-15T19:40:10.079Z,6.90
2018-03-15T19:42:37.944Z,6.73
2018-03-15T19:45:07.383Z,7.27
2018-03-15T19:47:35.119Z,7.90
2018-03-15T19:50:03.565Z,9.07
2018-03-15T19:52:31.188Z,7.47
2018-03-15T19:54:58.825Z,8.23
2018-03-15T19:57:27.957Z,8.07
2018-03-15T19:59:55.560Z,7.70
2018-03-15T20:02:23.430Z,13.20
2018-03-15T20:04:51.103Z,12.83
2018-03-15T20:07:19.725Z,8.13
2018-03-15T20:09:49.331Z,8.13
2018-03-15T20:12:17.746Z,13.90
2018-03-15T20:14:47.148Z,7.53
2018-03-15T20:17:17.931Z,9.80
2018-03-15T20:19:46.404Z,12.30
2018-03-15T20:22:14.626Z,12.87
2018-03-15T20:24:42.886Z,10.33
2018-03-15T20:27:11.754Z,9.93
2018-03-15T20:29:40.189Z,14.10
2018-03-15T20:32:09.385Z,8.87
2018-03-15T20:34:37.792Z,12.93
2018-03-15T20:37:05.557Z,8.00
2018-03-15T20:39:40.949Z,10.63
2018-03-15T20:42:09.556Z,10.60
2018-03-15T20:44:37.508Z,10.60
2018-03-15T20:47:11.847Z,12.13
2018-03-15T20:49:39.674Z,13.43
2018-03-15T20:52:08.448Z,14.27
2018-03-15T20:54:37.290Z,14.23
2018-03-15T20:57:04.966Z,8.60
2018-03-15T20:59:33.124Z,9.27
2018-03-15T21:02:01.348Z,11.23
2018-03-15T21:04:29.032Z,10.63
2018-03-15T21:06:56.686Z,12.70
2018-03-15T21:09:25.895Z,9.77
2018-03-15T21:11:53.777Z,12.63
2018-03-15T21:17:03.583Z,11.03
2018-03-15T21:19:33.316Z,12.00
2018-03-15T21:22:01.883Z,10.50
2018-03-15T21:24:29.646Z,7.70
2018-03-15T21:26:59.586Z,11.83
2018-03-15T21:29:27.771Z,12.90
2018-03-15T21:31:56.166Z,10.93
2018-03-15T21:34:25.779Z,9.23
2018-03-15T21:36:54.711Z,17.40
2018-03-15T21:39:22.284Z,9.97
2018-03-15T21:41:49.896Z,12.33
2018-03-15T21:44:17.652Z,11.43
2018-03-15T21:46:46.237Z,10.00
2018-03-15T21:49:14.084Z,16.07
2018-03-15T21:51:43.656Z,13.53
2018-03-15T21:54:12.535Z,13.27
2018-03-15T21:56:41.189Z,10.50
2018-03-15T21:59:10.320Z,7.80
2018-03-15T22:01:39.106Z,9.67
2018-03-15T22:04:08.734Z,8.90
2018-03-15T22:06:36.995Z,13.10
2018-03-15T22:09:04.680Z,14.93
2018-03-15T22:11:33.865Z,8.70
2018-03-15T22:14:01.453Z,9.70
2018-03-15T22:16:29.084Z,11.87
2018-03-15T22:18:57.903Z,12.47
2018-03-15T22:21:25.521Z,11.80
2018-03-15T22:23:53.171Z,7.47
2018-03-15T22:26:21.592Z,8.87
2018-03-15T22:28:50.003Z,6.53
2018-03-15T22:31:17.681Z,10.03
2018-03-15T22:33:45.247Z,10.03
2018-03-15T22:36:14.586Z,12.93
2018-03-15T22:38:42.971Z,10.70
2018-03-15T22:41:11.246Z,10.80
2018-03-15T22:43:39.961Z,8.37
2018-03-15T22:46:07.557Z,9.97
2018-03-15T22:48:35.935Z,9.30
2018-03-15T22:51:03.757Z,6.30
2018-03-15T22:53:31.474Z,9.47
2018-03-15T22:55:59.192Z,6.43
2018-03-15T22:58:27.598Z,9.53
2018-03-15T23:00:55.467Z,10.07
2018-03-15T23:03:23.148Z,9.97
2018-03-15T23:05:51.714Z,4.63
2018-03-15T23:08:19.320Z,6.23
2018-03-15T23:10:46.899Z,9.43
2018-03-15T23:13:14.501Z,10.37
2018-03-15T23:15:42.823Z,8.17
2018-03-15T23:18:10.603Z,10.57
2018-03-15T23:20:39.244Z,8.73
2018-03-15T23:23:07.830Z,7.03
2018-03-15T23:25:35.458Z,6.90
2018-03-15T23:28:03.829Z,6.93
2018-03-15T23:30:31.465Z,8.47
2018-03-15T23:32:59.129Z,7.03
2018-03-15T23:35:27.254Z,6.97
2018-03-15T23:37:55.819Z,5.03
2018-03-15T23:40:24.858Z,5.93
2018-03-15T23:42:52.463Z,5.40
2018-03-15T23:45:20.909Z,6.37
2018-03-15T23:47:50.407Z,5.70
2018-03-15T23:50:18.842Z,6.93
2018-03-15T23:52:46.537Z,5.27
2018-03-15T23:55:14.751Z,5.43
2018-03-15T23:57:43.355Z,4.47
